createdAt,value
2022-10-06T00:00:32.313Z,9.95
2022-10-06T00:03:02.586Z,12.20
2022-10-06T00:05:32.664Z,11.55
2022-10-06T00:08:03.937Z,9.93
2022-10-06T00:10:34.397Z,10.73
2022-10-06T00:13:04.666Z,9.65
2022-10-06T00:15:34.881Z,13.18
2022-10-06T00:18:05.090Z,10.85
2022-10-06T00:20:35.112Z,9.57
2022-10-06T00:23:05.197Z,10.20
2022-10-06T00:25:35.224Z,10.68
2022-10-06T00:28:05.314Z,10.73
2022-10-06T00:30:35.287Z,9.75
2022-10-06T00:33:05.780Z,11.48
2022-10-06T00:35:36.227Z,9.15
2022-10-06T00:38:06.250Z,10.15
2022-10-06T00:40:36.174Z,10.18
2022-10-06T00:43:28.905Z,9.18
2022-10-06T00:45:59.121Z,10.13
2022-10-06T00:48:29.335Z,10.40
2022-10-06T00:50:59.645Z,10.65
2022-10-06T00:53:30.054Z,13.13
2022-10-06T00:56:00.028Z,17.35
2022-10-06T00:58:30.375Z,15.25
2022-10-06T01:01:00.662Z,16.60
2022-10-06T01:03:33.025Z,16.10
2022-10-06T01:06:03.500Z,13.07
2022-10-06T01:08:33.738Z,16.60
2022-10-06T01:11:04.301Z,13.65
2022-10-06T01:16:10.876Z,23.90
2022-10-06T01:18:41.685Z,13.65
2022-10-06T01:21:15.596Z,20.42
2022-10-06T01:23:45.630Z,21.35
2022-10-06T01:26:15.733Z,17.05
2022-10-06T01:28:45.892Z,20.10
2022-10-06T01:31:15.941Z,18.15
2022-10-06T01:33:46.878Z,13.60
2022-10-06T01:36:16.870Z,20.92
2022-10-06T01:38:46.869Z,18.75
2022-10-06T01:41:16.857Z,19.45
2022-10-06T01:43:46.797Z,16.73
2022-10-06T01:46:17.380Z,16.83
2022-10-06T01:48:47.332Z,18.90
2022-10-06T01:51:19.087Z,16.52
2022-10-06T01:53:49.021Z,25.73
2022-10-06T01:56:20.110Z,19.55
2022-10-06T01:58:50.144Z,18.88
2022-10-06T02:01:20.355Z,21.45
2022-10-06T02:03:50.339Z,25.92
2022-10-06T02:06:20.442Z,22.95
2022-10-06T02:08:50.373Z,25.70
2022-10-06T02:11:21.207Z,16.95
2022-10-06T02:13:52.284Z,20.13
2022-10-06T02:16:23.291Z,19.52
2022-10-06T02:18:53.302Z,21.20
2022-10-06T02:21:24.294Z,19.63
2022-10-06T02:23:54.368Z,25.10
2022-10-06T02:26:24.439Z,22.55
2022-10-06T02:28:57.001Z,21.83
2022-10-06T02:31:34.054Z,22.40
2022-10-06T02:34:04.207Z,27.88
2022-10-06T02:36:37.284Z,19.00
2022-10-06T02:39:08.160Z,17.17
2022-10-06T02:41:38.073Z,17.88
2022-10-06T02:44:08.076Z,15.52
2022-10-06T02:46:39.937Z,20.25
2022-10-06T02:49:09.951Z,18.80
2022-10-06T02:51:39.912Z,18.85
2022-10-06T02:54:09.899Z,17.30
2022-10-06T02:56:40.519Z,18.23
2022-10-06T02:59:10.470Z,17.27
2022-10-06T03:01:43.410Z,17.15
2022-10-06T03:04:18.492Z,20.90
2022-10-06T03:09:49.623Z,18.35
2022-10-06T03:12:20.480Z,17.98
2022-10-06T03:14:53.454Z,26.10
2022-10-06T03:17:26.544Z,17.33
2022-10-06T03:20:01.946Z,15.88
2022-10-06T03:22:38.712Z,16.70
2022-10-06T03:25:09.353Z,18.10
2022-10-06T03:27:39.383Z,15.05
2022-10-06T03:30:34.449Z,16.85
2022-10-06T03:33:08.822Z,18.75
2022-10-06T03:35:38.833Z,16.02
2022-10-06T03:38:09.217Z,19.48
2022-10-06T03:40:41.754Z,17.25
2022-10-06T03:43:12.122Z,17.85
2022-10-06T03:45:42.915Z,23.23
2022-10-06T03:48:12.844Z,18.00
2022-10-06T03:50:42.835Z,19.10
2022-10-06T03:53:13.056Z,35.03
2022-10-06T03:55:43.052Z,18.88
2022-10-06T03:58:13.148Z,19.27
2022-10-06T04:00:43.254Z,20.95
2022-10-06T04:03:13.381Z,17.38
2022-10-06T04:05:54.968Z,16.02
2022-10-06T04:08:26.833Z,15.95
2022-10-06T04:10:57.834Z,16.87
2022-10-06T04:13:27.921Z,22.10
2022-10-06T04:16:01.520Z,18.65
2022-10-06T04:18:39.118Z,19.90
2022-10-06T04:21:12.169Z,18.50
2022-10-06T04:23:45.032Z,26.20
2022-10-06T04:26:17.468Z,19.85
2022-10-06T04:28:53.661Z,22.70
2022-10-06T04:31:31.051Z,20.35
2022-10-06T04:34:02.318Z,26.10
2022-10-06T04:36:35.376Z,22.90
2022-10-06T04:39:06.027Z,26.40
2022-10-06T04:41:38.087Z,26.53
2022-10-06T04:44:08.863Z,23.43
2022-10-06T04:46:44.257Z,27.65
2022-10-06T04:49:19.988Z,21.63
2022-10-06T04:51:53.122Z,21.40
2022-10-06T04:54:23.969Z,21.33
2022-10-06T04:56:59.328Z,22.77
2022-10-06T04:59:49.058Z,22.50
2022-10-06T05:02:21.004Z,19.75
2022-10-06T05:04:55.194Z,23.15
2022-10-06T05:07:26.270Z,16.92
2022-10-06T05:09:58.859Z,21.75
2022-10-06T05:12:32.404Z,28.73
2022-10-06T05:15:02.432Z,19.60
2022-10-06T05:17:32.578Z,23.23
2022-10-06T05:20:02.520Z,20.15
2022-10-06T05:22:32.528Z,20.02
2022-10-06T05:25:02.567Z,20.15
2022-10-06T05:27:32.532Z,15.02
2022-10-06T05:30:02.552Z,13.85
2022-10-06T05:32:36.367Z,17.20
2022-10-06T05:35:08.131Z,20.45
2022-10-06T05:37:43.718Z,16.30
2022-10-06T05:40:14.023Z,22.00
2022-10-06T05:42:44.014Z,26.20
2022-10-06T05:45:14.060Z,33.58
2022-10-06T05:47:44.011Z,15.60
2022-10-06T05:50:14.172Z,24.65
2022-10-06T05:52:44.561Z,28.83
2022-10-06T05:55:14.613Z,15.40
2022-10-06T05:57:44.721Z,17.80
2022-10-06T06:00:14.968Z,17.70
2022-10-06T06:02:47.596Z,22.05
2022-10-06T06:05:18.110Z,24.30
2022-10-06T06:07:48.671Z,18.33
2022-10-06T06:10:18.611Z,16.88
2022-10-06T06:12:48.961Z,14.70
2022-10-06T06:16:03.156Z,12.27
2022-10-06T06:18:38.971Z,14.75
2022-10-06T06:21:13.607Z,15.25
2022-10-06T06:23:47.555Z,19.23
2022-10-06T06:26:25.406Z,15.77
2022-10-06T06:28:56.419Z,11.50
2022-10-06T06:31:30.954Z,14.32
2022-10-06T06:34:02.582Z,17.17
2022-10-06T06:36:38.080Z,13.77
2022-10-06T06:39:12.327Z,16.80
2022-10-06T06:41:46.326Z,11.73
2022-10-06T06:44:39.060Z,10.13
2022-10-06T06:47:25.930Z,11.20
2022-10-06T06:50:05.355Z,13.77
2022-10-06T06:55:05.208Z,14.63
2022-10-06T06:57:35.963Z,13.48
2022-10-06T07:00:09.298Z,14.57
2022-10-06T07:02:41.651Z,14.40
2022-10-06T07:05:14.349Z,14.98
2022-10-06T07:07:44.577Z,13.07
2022-10-06T07:10:17.329Z,10.45
2022-10-06T07:12:47.857Z,11.93
2022-10-06T07:15:36.077Z,12.23
2022-10-06T07:18:24.201Z,10.45
2022-10-06T07:21:12.690Z,15.43
2022-10-06T07:24:01.322Z,12.73
2022-10-06T07:26:32.259Z,10.27
2022-10-06T07:29:04.377Z,11.68
2022-10-06T07:31:42.556Z,8.68
2022-10-06T07:34:12.662Z,10.63
2022-10-06T07:36:47.070Z,10.68
2022-10-06T07:39:17.978Z,8.27
2022-10-06T07:41:48.023Z,9.80
2022-10-06T07:44:17.963Z,10.80
2022-10-06T07:46:50.520Z,8.43
2022-10-06T07:51:55.643Z,14.05
2022-10-06T07:54:28.885Z,11.30
2022-10-06T07:57:31.370Z,8.68
2022-10-06T08:00:03.934Z,10.30
2022-10-06T08:02:41.375Z,10.52
2022-10-06T08:05:11.733Z,9.77
2022-10-06T08:07:42.138Z,11.90
2022-10-06T08:10:12.431Z,12.07
2022-10-06T08:12:42.868Z,8.43
2022-10-06T08:15:14.859Z,8.98
2022-10-06T08:17:45.216Z,7.50
2022-10-06T08:20:15.800Z,10.30
2022-10-06T08:22:48.756Z,10.65
2022-10-06T08:25:19.602Z,7.32
2022-10-06T08:27:53.378Z,9.27
2022-10-06T08:30:28.339Z,10.55
2022-10-06T08:32:59.799Z,8.40
2022-10-06T08:35:31.851Z,7.90
2022-10-06T08:38:01.946Z,8.75
2022-10-06T08:40:42.143Z,8.20
2022-10-06T08:43:19.583Z,11.10
2022-10-06T08:45:51.844Z,8.80
2022-10-06T08:50:55.277Z,6.88
2022-10-06T08:53:34.146Z,6.57
2022-10-06T08:56:21.365Z,5.07
2022-10-06T08:58:56.975Z,7.20
2022-10-06T09:01:49.047Z,7.03
2022-10-06T09:04:31.463Z,9.60
2022-10-06T09:07:09.198Z,10.07
2022-10-06T09:09:57.904Z,5.85
2022-10-06T09:12:34.353Z,7.38
2022-10-06T09:15:16.986Z,10.40
2022-10-06T09:20:32.297Z,8.20
2022-10-06T09:23:03.492Z,7.10
2022-10-06T09:25:33.797Z,7.15
2022-10-06T09:28:04.526Z,9.30
2022-10-06T09:30:34.674Z,6.07
2022-10-06T09:33:06.166Z,7.70
2022-10-06T09:35:37.604Z,6.83
2022-10-06T09:38:09.279Z,8.43
2022-10-06T09:40:55.755Z,8.27
2022-10-06T09:43:30.009Z,5.55
2022-10-06T09:46:23.528Z,5.80
2022-10-06T09:49:08.537Z,8.95
2022-10-06T09:51:39.261Z,6.22
2022-10-06T09:54:15.606Z,9.93
2022-10-06T09:56:47.268Z,7.40
2022-10-06T09:59:24.437Z,6.53
2022-10-06T10:01:56.411Z,8.30
2022-10-06T10:04:34.147Z,10.57
2022-10-06T10:07:48.715Z,8.70
2022-10-06T10:10:33.016Z,9.02
2022-10-06T10:13:42.868Z,10.68
2022-10-06T10:16:20.677Z,11.13
2022-10-06T10:18:52.141Z,13.15
2022-10-06T10:21:40.206Z,14.98
2022-10-06T10:24:19.750Z,10.32
2022-10-06T10:27:03.056Z,10.98
2022-10-06T10:29:50.736Z,10.57
2022-10-06T10:32:53.534Z,8.95
2022-10-06T10:35:38.443Z,9.77
2022-10-06T10:38:22.866Z,11.15
2022-10-06T10:41:22.726Z,14.63
2022-10-06T10:44:25.763Z,10.10
2022-10-06T10:46:57.553Z,10.80
2022-10-06T10:49:32.262Z,13.48
2022-10-06T10:52:24.681Z,11.20
2022-10-06T10:55:34.239Z,14.60
2022-10-06T10:58:16.285Z,8.57
2022-10-06T11:00:51.824Z,14.07
2022-10-06T11:03:22.848Z,6.53
2022-10-06T11:06:34.083Z,17.10
2022-10-06T11:09:13.550Z,11.35
2022-10-06T11:12:04.944Z,10.85
2022-10-06T11:14:37.730Z,8.80
2022-10-06T11:17:20.434Z,7.20
2022-10-06T11:22:39.332Z,10.02
2022-10-06T11:25:44.297Z,9.57
2022-10-06T11:28:21.158Z,8.07
2022-10-06T11:30:54.551Z,7.63
2022-10-06T11:33:34.136Z,9.55
2022-10-06T11:36:04.921Z,7.03
2022-10-06T11:38:47.007Z,8.30
2022-10-06T11:41:44.713Z,10.40
2022-10-06T11:44:50.102Z,8.18
2022-10-06T11:47:35.450Z,7.38
2022-10-06T11:50:41.415Z,5.18
2022-10-06T11:53:41.445Z,7.45
2022-10-06T11:56:20.440Z,11.70
2022-10-06T11:58:59.111Z,12.00
2022-10-06T12:01:36.632Z,7.47
2022-10-06T12:04:12.302Z,7.20
2022-10-06T12:06:46.185Z,8.85
2022-10-06T12:09:34.277Z,9.93
2022-10-06T12:12:20.717Z,7.95
2022-10-06T12:18:24.161Z,10.30
2022-10-06T12:21:11.758Z,7.32
2022-10-06T12:23:59.664Z,9.52
2022-10-06T12:26:59.610Z,8.30
2022-10-06T12:29:29.598Z,14.35
2022-10-06T12:32:34.203Z,9.85
2022-10-06T12:35:17.424Z,9.50
2022-10-06T12:37:54.750Z,9.75
2022-10-06T12:40:48.053Z,12.82
2022-10-06T12:43:20.859Z,9.80
2022-10-06T12:46:01.708Z,8.32
2022-10-06T12:48:43.950Z,11.20
2022-10-06T12:51:45.746Z,10.38
2022-10-06T12:54:33.519Z,8.65
2022-10-06T12:57:05.036Z,12.68
2022-10-06T12:59:41.227Z,11.80
2022-10-06T13:02:17.849Z,13.10
2022-10-06T13:05:03.746Z,14.23
2022-10-06T13:07:35.135Z,13.13
2022-10-06T13:10:20.721Z,15.75
2022-10-06T13:12:51.425Z,10.15
2022-10-06T13:15:28.805Z,10.75
2022-10-06T13:18:23.225Z,14.18
2022-10-06T13:20:57.089Z,10.93
2022-10-06T13:23:28.851Z,15.52
2022-10-06T13:26:02.675Z,9.75
2022-10-06T13:28:38.294Z,10.98
2022-10-06T13:31:22.408Z,12.05
2022-10-06T13:34:18.510Z,13.80
2022-10-06T13:36:51.822Z,10.40
2022-10-06T13:39:32.699Z,13.20
2022-10-06T13:42:32.736Z,11.73
2022-10-06T13:45:02.830Z,11.35
2022-10-06T13:47:34.270Z,11.80
2022-10-06T13:50:19.482Z,12.32
2022-10-06T13:52:50.811Z,10.45
2022-10-06T13:55:22.517Z,10.27
2022-10-06T13:58:04.929Z,11.98
2022-10-06T14:00:55.667Z,11.55
2022-10-06T14:03:29.594Z,11.18
2022-10-06T14:06:18.117Z,11.85
2022-10-06T14:08:51.234Z,8.80
2022-10-06T14:11:29.249Z,8.40
2022-10-06T14:14:03.728Z,10.02
2022-10-06T14:16:33.694Z,10.10
2022-10-06T14:19:05.114Z,11.45
2022-10-06T14:21:37.824Z,8.50
2022-10-06T14:24:20.657Z,10.93
2022-10-06T14:26:51.202Z,12.35
2022-10-06T14:29:21.189Z,13.48
2022-10-06T14:31:51.704Z,7.45
2022-10-06T14:34:23.417Z,10.15
2022-10-06T14:36:56.223Z,11.93
2022-10-06T14:39:26.089Z,11.27
2022-10-06T14:41:56.012Z,8.70
2022-10-06T14:44:26.021Z,9.65
2022-10-06T14:46:55.909Z,10.55
2022-10-06T14:49:27.073Z,11.70
2022-10-06T14:51:57.910Z,13.45
2022-10-06T14:54:37.757Z,9.15
2022-10-06T14:57:11.790Z,12.95
2022-10-06T14:59:43.979Z,10.30
2022-10-06T15:02:15.329Z,11.55
2022-10-06T15:04:46.879Z,10.48
2022-10-06T15:07:37.209Z,12.75
2022-10-06T15:10:07.802Z,14.50
2022-10-06T15:12:38.531Z,11.60
2022-10-06T15:15:09.021Z,12.80
2022-10-06T15:17:39.273Z,12.27
2022-10-06T15:20:09.604Z,11.00
2022-10-06T15:22:39.542Z,11.70
2022-10-06T15:25:29.449Z,12.05
2022-10-06T15:28:19.990Z,12.05
2022-10-06T15:30:54.309Z,11.70
2022-10-06T15:33:26.673Z,10.75
2022-10-06T15:36:23.055Z,10.20
2022-10-06T15:38:59.603Z,13.48
2022-10-06T15:41:29.743Z,12.07
2022-10-06T15:43:59.864Z,16.75
2022-10-06T15:46:34.380Z,10.80
2022-10-06T15:49:05.598Z,14.80
2022-10-06T15:51:37.811Z,16.67
2022-10-06T15:54:07.898Z,13.88
2022-10-06T15:56:39.254Z,16.90
2022-10-06T15:59:09.477Z,14.07
2022-10-06T16:01:44.911Z,16.83
2022-10-06T16:04:25.443Z,13.30
2022-10-06T16:06:57.032Z,16.15
2022-10-06T16:09:33.289Z,12.50
2022-10-06T16:12:06.386Z,11.68
2022-10-06T16:14:36.933Z,14.15
2022-10-06T16:17:07.169Z,17.67
2022-10-06T16:19:41.193Z,12.43
2022-10-06T16:22:12.108Z,15.27
2022-10-06T16:24:42.096Z,16.27
2022-10-06T16:27:15.362Z,13.02
2022-10-06T16:29:45.405Z,14.40
2022-10-06T16:32:15.457Z,15.18
2022-10-06T16:34:45.510Z,13.70
2022-10-06T16:37:15.551Z,12.75
2022-10-06T16:39:45.607Z,16.67
2022-10-06T16:42:15.613Z,14.93
2022-10-06T16:44:45.544Z,13.15
2022-10-06T16:47:15.573Z,13.63
2022-10-06T16:49:45.548Z,12.38
2022-10-06T16:52:15.477Z,16.60
2022-10-06T16:54:45.457Z,13.52
2022-10-06T16:57:15.432Z,14.63
2022-10-06T16:59:46.989Z,12.05
2022-10-06T17:02:17.182Z,15.77
2022-10-06T17:04:47.185Z,16.45
2022-10-06T17:07:17.129Z,15.07
2022-10-06T17:10:15.342Z,16.10
2022-10-06T17:12:37.618Z,14.05
2022-10-06T17:15:08.062Z,13.88
2022-10-06T17:17:38.274Z,13.27
2022-10-06T17:20:09.109Z,15.75
2022-10-06T17:22:39.336Z,13.18
2022-10-06T17:25:09.878Z,13.35
2022-10-06T17:27:42.035Z,12.15
2022-10-06T17:32:42.495Z,13.30
2022-10-06T17:35:12.653Z,14.20
2022-10-06T17:37:43.616Z,15.88
2022-10-06T17:40:13.626Z,13.65
2022-10-06T17:42:43.738Z,18.20
2022-10-06T17:45:16.542Z,14.27
2022-10-06T17:47:49.064Z,13.70
2022-10-06T17:50:19.246Z,13.98
2022-10-06T17:52:49.450Z,15.57
2022-10-06T17:55:19.385Z,12.00
2022-10-06T17:57:49.339Z,13.57
2022-10-06T18:00:19.442Z,12.73
2022-10-06T18:03:01.228Z,13.63
2022-10-06T18:05:33.178Z,16.37
2022-10-06T18:08:36.005Z,12.68
2022-10-06T18:11:24.506Z,14.82
2022-10-06T18:13:54.752Z,14.88
2022-10-06T18:16:25.470Z,15.63
2022-10-06T18:18:56.109Z,14.07
2022-10-06T18:21:27.491Z,14.65
2022-10-06T18:23:57.894Z,12.95
2022-10-06T18:26:28.274Z,14.35
2022-10-06T18:28:58.570Z,14.38
2022-10-06T18:31:28.572Z,15.02
2022-10-06T18:36:51.951Z,13.75
2022-10-06T18:40:02.895Z,15.07
2022-10-06T18:43:20.216Z,14.93
2022-10-06T18:46:12.413Z,15.70
2022-10-06T18:48:59.549Z,13.32
2022-10-06T18:51:29.633Z,13.57
2022-10-06T18:54:00.298Z,15.55
2022-10-06T18:56:32.269Z,12.40
2022-10-06T18:59:03.054Z,15.55
2022-10-06T19:01:33.492Z,13.18
2022-10-06T19:04:05.865Z,15.57
2022-10-06T19:06:36.850Z,13.70
2022-10-06T19:09:07.165Z,15.63
2022-10-06T19:11:43.392Z,13.63
2022-10-06T19:14:15.318Z,15.23
2022-10-06T19:16:46.163Z,14.13
2022-10-06T19:19:20.647Z,16.70
2022-10-06T19:21:56.174Z,12.90
2022-10-06T19:24:26.636Z,12.32
2022-10-06T19:26:57.542Z,13.52
2022-10-06T19:29:28.105Z,15.55
2022-10-06T19:31:59.471Z,14.02
2022-10-06T19:34:29.521Z,13.52
2022-10-06T19:37:00.692Z,13.18
2022-10-06T19:39:34.116Z,13.13
2022-10-06T19:42:22.544Z,12.95
2022-10-06T19:44:52.491Z,12.32
2022-10-06T19:47:23.007Z,13.90
2022-10-06T19:49:58.335Z,11.93
2022-10-06T19:52:29.877Z,11.98
2022-10-06T19:54:59.772Z,12.20
2022-10-06T19:57:30.991Z,13.52
2022-10-06T20:00:00.961Z,15.50
2022-10-06T20:02:56.046Z,12.55
2022-10-06T20:05:47.266Z,14.15
2022-10-06T20:08:18.168Z,13.60
2022-10-06T20:10:48.357Z,12.98
2022-10-06T20:13:24.109Z,14.60
2022-10-06T20:15:54.096Z,12.02
2022-10-06T20:18:26.535Z,13.38
2022-10-06T20:24:09.098Z,11.77
2022-10-06T20:26:44.900Z,13.95
2022-10-06T20:29:15.575Z,14.88
2022-10-06T20:31:46.785Z,13.88
2022-10-06T20:34:17.767Z,14.68
2022-10-06T20:36:50.691Z,13.30
2022-10-06T20:39:44.122Z,13.07
2022-10-06T20:42:32.492Z,12.68
2022-10-06T20:45:08.905Z,20.02
2022-10-06T20:47:38.944Z,13.00
2022-10-06T20:50:09.239Z,11.95
2022-10-06T20:52:39.834Z,14.55
2022-10-06T20:55:10.139Z,12.32
2022-10-06T20:57:40.179Z,12.95
2022-10-06T21:00:10.787Z,13.88
2022-10-06T21:02:41.772Z,11.43
2022-10-06T21:05:12.127Z,10.63
2022-10-06T21:07:42.518Z,9.98
2022-10-06T21:10:13.113Z,13.68
2022-10-06T21:12:44.328Z,11.15
2022-10-06T21:15:14.658Z,13.50
2022-10-06T21:17:47.341Z,12.50
2022-10-06T21:22:47.123Z,11.52
2022-10-06T21:25:17.111Z,11.98
2022-10-06T21:27:48.307Z,14.20
2022-10-06T21:30:19.358Z,10.37
2022-10-06T21:32:49.841Z,11.65
2022-10-06T21:35:20.376Z,10.75
2022-10-06T21:37:50.346Z,11.25
2022-10-06T21:40:20.835Z,14.82
2022-10-06T21:42:51.033Z,12.48
2022-10-06T21:45:24.466Z,15.73
2022-10-06T21:47:56.176Z,11.88
2022-10-06T21:50:26.968Z,10.50
2022-10-06T21:52:57.182Z,12.73
2022-10-06T21:55:27.215Z,11.23
2022-10-06T21:57:57.238Z,10.50
2022-10-06T22:00:27.522Z,11.30
2022-10-06T22:02:58.064Z,9.40
2022-10-06T22:05:28.486Z,10.32
2022-10-06T22:07:58.471Z,11.88
2022-10-06T22:10:28.728Z,13.95
2022-10-06T22:12:58.684Z,12.45
2022-10-06T22:15:28.722Z,11.27
2022-10-06T22:17:59.252Z,10.70
2022-10-06T22:20:33.355Z,14.35
2022-10-06T22:23:04.991Z,10.27
2022-10-06T22:25:35.580Z,12.68
2022-10-06T22:28:05.609Z,14.05
2022-10-06T22:30:36.337Z,13.05
2022-10-06T22:33:06.631Z,10.82
2022-10-06T22:35:36.566Z,10.80
2022-10-06T22:38:06.510Z,12.40
2022-10-06T22:40:36.444Z,13.07
2022-10-06T22:43:06.414Z,11.07
2022-10-06T22:45:36.365Z,10.43
2022-10-06T22:48:06.412Z,9.40
2022-10-06T22:50:36.445Z,11.25
2022-10-06T22:53:06.462Z,10.48
2022-10-06T22:55:36.512Z,11.43
2022-10-06T22:58:06.468Z,11.60
2022-10-06T23:00:37.672Z,13.20
2022-10-06T23:03:08.522Z,9.93
2022-10-06T23:05:38.583Z,16.73
2022-10-06T23:08:08.933Z,11.27
2022-10-06T23:10:39.792Z,16.60
2022-10-06T23:13:09.735Z,12.50
2022-10-06T23:15:40.195Z,8.98
2022-10-06T23:18:10.133Z,8.77
2022-10-06T23:20:40.350Z,13.43
2022-10-06T23:23:10.357Z,10.82
2022-10-06T23:25:40.449Z,10.05
2022-10-06T23:28:10.437Z,10.68
2022-10-06T23:30:40.492Z,10.52
2022-10-06T23:33:10.443Z,13.77
2022-10-06T23:35:40.406Z,10.85
2022-10-06T23:38:10.715Z,10.77
2022-10-06T23:40:41.629Z,11.82
2022-10-06T23:43:11.680Z,9.48
2022-10-06T23:45:42.068Z,8.70
2022-10-06T23:48:12.294Z,12.07
2022-10-06T23:50:42.688Z,11.45
2022-10-06T23:53:12.693Z,11.15
2022-10-06T23:55:42.642Z,10.55
2022-10-06T23:58:12.738Z,11.90
